createdAt,value
2019-03-17T00:01:04.902Z,84.19
2019-03-17T00:03:36.666Z,84.24
2019-03-17T00:06:08.507Z,83.91
2019-03-17T00:08:40.194Z,84.07
2019-03-17T00:11:11.972Z,84.40
2019-03-17T00:13:44.005Z,84.45
2019-03-17T00:16:15.693Z,84.46
2019-03-17T00:18:47.795Z,84.43
2019-03-17T00:21:19.798Z,84.48
2019-03-17T00:23:52.137Z,84.41
2019-03-17T00:26:24.142Z,84.15
2019-03-17T00:28:55.811Z,84.72
2019-03-17T00:31:27.577Z,84.65
2019-03-17T00:33:59.291Z,84.90
2019-03-17T00:36:31.342Z,84.42
2019-03-17T00:39:03.823Z,84.30
2019-03-17T00:41:36.834Z,84.11
2019-03-17T00:44:09.186Z,84.26
2019-03-17T00:46:40.895Z,84.22
2019-03-17T00:49:12.576Z,84.09
2019-03-17T00:51:44.275Z,84.02
2019-03-17T00:54:16.029Z,84.03
2019-03-17T00:56:47.701Z,83.60
2019-03-17T00:59:19.371Z,83.51
2019-03-17T01:01:51.166Z,83.52
2019-03-17T01:04:22.850Z,83.34
2019-03-17T01:06:54.539Z,83.18
2019-03-17T01:09:26.520Z,83.60
2019-03-17T01:11:58.221Z,83.24
2019-03-17T01:14:29.981Z,82.89
2019-03-17T01:17:01.729Z,83.04
2019-03-17T01:19:33.427Z,82.65
2019-03-17T01:22:06.403Z,82.65
2019-03-17T01:24:38.438Z,82.59
2019-03-17T01:27:10.126Z,82.83
2019-03-17T01:29:42.131Z,83.23
2019-03-17T01:32:14.894Z,83.51
2019-03-17T01:34:46.600Z,82.70
2019-03-17T01:37:18.303Z,82.51
2019-03-17T01:39:49.978Z,82.85
2019-03-17T01:42:21.672Z,82.64
2019-03-17T01:44:53.717Z,82.52
2019-03-17T01:47:27.720Z,81.97
2019-03-17T01:49:58.774Z,82.27
2019-03-17T01:52:30.534Z,82.21
2019-03-17T01:55:02.308Z,82.07
2019-03-17T01:57:34.012Z,82.91
2019-03-17T02:00:09.102Z,82.92
2019-03-17T02:02:40.823Z,83.06
2019-03-17T02:05:21.894Z,82.87
2019-03-17T02:07:47.531Z,83.05
2019-03-17T02:10:19.216Z,82.97
2019-03-17T02:12:50.911Z,82.90
2019-03-17T02:15:22.642Z,82.66
2019-03-17T02:17:54.338Z,82.55
2019-03-17T02:20:26.075Z,82.56
2019-03-17T02:22:57.755Z,82.73
2019-03-17T02:25:29.432Z,82.59
2019-03-17T02:28:01.110Z,82.15
2019-03-17T02:30:32.782Z,82.14
2019-03-17T02:33:04.647Z,81.97
2019-03-17T02:35:39.671Z,81.69
2019-03-17T02:38:09.725Z,81.99
2019-03-17T02:40:42.591Z,81.73
2019-03-17T02:43:14.730Z,81.53
2019-03-17T02:45:46.424Z,81.20
2019-03-17T02:48:18.254Z,80.91
2019-03-17T02:50:49.912Z,80.55
2019-03-17T02:53:21.588Z,80.36
2019-03-17T02:55:53.256Z,79.93
2019-03-17T02:58:24.937Z,80.03
2019-03-17T03:00:56.625Z,79.62
2019-03-17T03:03:28.303Z,79.21
2019-03-17T03:05:59.978Z,78.93
2019-03-17T03:08:31.810Z,78.65
2019-03-17T03:11:03.487Z,78.65
2019-03-17T03:13:35.266Z,78.50
2019-03-17T03:16:07.024Z,78.50
2019-03-17T03:18:38.785Z,78.75
2019-03-17T03:21:12.001Z,78.83
2019-03-17T03:23:43.732Z,78.71
2019-03-17T03:26:15.394Z,79.12
2019-03-17T03:28:47.074Z,78.99
2019-03-17T03:31:19.100Z,79.07
2019-03-17T03:33:50.978Z,79.22
2019-03-17T03:36:22.877Z,79.14
2019-03-17T03:38:54.922Z,79.31
2019-03-17T03:41:26.658Z,79.25
2019-03-17T03:43:58.484Z,79.42
2019-03-17T03:46:30.407Z,79.51
2019-03-17T03:49:02.306Z,79.16
2019-03-17T03:51:34.046Z,78.83
2019-03-17T03:54:05.930Z,78.53
2019-03-17T03:56:37.749Z,78.01
2019-03-17T03:59:09.640Z,77.75
2019-03-17T04:01:41.528Z,77.49
2019-03-17T04:04:13.738Z,77.50
2019-03-17T04:06:45.855Z,77.00
2019-03-17T04:09:17.748Z,76.72
2019-03-17T04:11:49.608Z,76.31
2019-03-17T04:14:21.370Z,76.57
2019-03-17T04:16:53.814Z,76.91
2019-03-17T04:19:25.660Z,76.89
2019-03-17T04:21:57.469Z,76.98
2019-03-17T04:24:29.578Z,77.12
2019-03-17T04:27:01.774Z,76.91
2019-03-17T04:29:33.853Z,77.33
2019-03-17T04:32:05.720Z,76.92
2019-03-17T04:34:37.747Z,76.87
2019-03-17T04:37:09.967Z,75.85
2019-03-17T04:39:41.783Z,75.47
2019-03-17T04:42:13.885Z,75.31
2019-03-17T04:44:45.719Z,75.86
2019-03-17T04:47:17.448Z,75.35
2019-03-17T04:49:49.215Z,75.48
2019-03-17T04:52:20.949Z,75.68
2019-03-17T04:54:52.863Z,75.74
2019-03-17T04:57:24.696Z,75.66
2019-03-17T04:59:57.089Z,75.81
2019-03-17T05:02:29.227Z,76.02
2019-03-17T05:05:01.030Z,75.77
2019-03-17T05:07:32.848Z,75.97
2019-03-17T05:10:05.834Z,75.89
2019-03-17T05:12:37.566Z,76.12
2019-03-17T05:15:09.684Z,75.91
2019-03-17T05:17:41.493Z,75.96
2019-03-17T05:20:13.388Z,76.17
2019-03-17T05:22:45.186Z,75.71
2019-03-17T05:25:16.930Z,75.28
2019-03-17T05:27:48.737Z,75.81
2019-03-17T05:30:20.924Z,75.70
2019-03-17T05:32:53.107Z,75.33
2019-03-17T05:35:24.901Z,75.56
2019-03-17T05:37:56.852Z,75.34
2019-03-17T05:40:28.602Z,75.27
2019-03-17T05:43:00.666Z,75.26
2019-03-17T05:45:32.796Z,75.00
2019-03-17T05:48:04.613Z,75.08
2019-03-17T05:50:36.349Z,74.81
2019-03-17T05:53:08.234Z,74.48
2019-03-17T05:55:40.259Z,74.87
2019-03-17T05:58:12.004Z,74.25
2019-03-17T06:00:44.718Z,75.00
2019-03-17T06:03:16.547Z,75.32
2019-03-17T06:05:48.427Z,75.64
2019-03-17T06:08:20.194Z,75.64
2019-03-17T06:10:51.942Z,76.32
2019-03-17T06:13:23.727Z,75.80
2019-03-17T06:15:55.561Z,75.48
2019-03-17T06:18:27.732Z,75.39
2019-03-17T06:21:00.443Z,74.84
2019-03-17T06:23:33.272Z,74.29
2019-03-17T06:26:05.427Z,73.58
2019-03-17T06:28:37.548Z,72.59
2019-03-17T06:31:09.316Z,71.78
2019-03-17T06:33:41.178Z,71.02
2019-03-17T06:36:12.942Z,71.23
2019-03-17T06:38:45.842Z,71.81
2019-03-17T06:41:17.705Z,72.36
2019-03-17T06:43:50.624Z,72.40
2019-03-17T06:46:22.449Z,72.55
2019-03-17T06:48:54.521Z,72.91
2019-03-17T06:51:26.998Z,73.00
2019-03-17T06:53:58.819Z,73.11
2019-03-17T06:56:30.649Z,75.19
2019-03-17T06:59:02.556Z,74.47
2019-03-17T07:01:34.361Z,73.71
2019-03-17T07:04:06.251Z,73.59
2019-03-17T07:06:38.071Z,72.97
2019-03-17T07:09:11.258Z,73.49
2019-03-17T07:11:43.111Z,72.90
2019-03-17T07:14:15.035Z,73.25
2019-03-17T07:16:47.155Z,72.31
2019-03-17T07:19:18.894Z,72.32
2019-03-17T07:21:52.256Z,72.14
2019-03-17T07:24:24.074Z,72.28
2019-03-17T07:26:55.946Z,71.99
2019-03-17T07:29:28.055Z,71.91
2019-03-17T07:32:02.208Z,72.83
2019-03-17T07:34:34.216Z,72.52
2019-03-17T07:37:06.304Z,71.81
2019-03-17T07:39:38.475Z,70.05
2019-03-17T07:42:11.400Z,69.37
2019-03-17T07:44:43.254Z,65.49
2019-03-17T07:47:15.682Z,64.05
2019-03-17T07:49:48.058Z,64.77
2019-03-17T07:52:20.267Z,60.55
2019-03-17T07:54:52.027Z,57.92
2019-03-17T07:57:24.282Z,56.63
2019-03-17T07:59:56.246Z,54.82
2019-03-17T08:02:28.157Z,53.70
2019-03-17T08:04:59.999Z,51.39
2019-03-17T08:07:31.737Z,51.23
2019-03-17T08:10:03.665Z,51.48
2019-03-17T08:12:35.988Z,50.78
2019-03-17T08:15:08.906Z,50.84
2019-03-17T08:17:40.878Z,49.28
2019-03-17T08:20:14.248Z,48.60
2019-03-17T08:22:46.078Z,45.97
2019-03-17T08:25:18.495Z,46.24
2019-03-17T08:27:50.254Z,45.52
2019-03-17T08:30:22.068Z,45.35
2019-03-17T08:32:53.883Z,46.22
2019-03-17T08:35:25.804Z,47.31
2019-03-17T08:37:57.567Z,44.75
2019-03-17T08:40:29.397Z,44.78
2019-03-17T08:43:01.182Z,44.20
2019-03-17T08:45:32.931Z,43.56
2019-03-17T08:48:05.834Z,43.27
2019-03-17T08:50:37.586Z,43.34
2019-03-17T08:53:09.422Z,42.10
2019-03-17T08:55:41.550Z,41.75
2019-03-17T08:58:13.400Z,41.36
2019-03-17T09:00:45.288Z,40.64
2019-03-17T09:03:17.148Z,41.71
2019-03-17T09:05:48.953Z,42.04
2019-03-17T09:08:20.729Z,41.12
2019-03-17T09:10:52.469Z,42.50
2019-03-17T09:13:24.313Z,42.12
2019-03-17T09:15:56.058Z,41.22
2019-03-17T09:18:28.281Z,41.35
2019-03-17T09:21:01.223Z,42.91
2019-03-17T09:23:33.368Z,40.64
2019-03-17T09:26:06.135Z,42.25
2019-03-17T09:28:37.904Z,42.13
2019-03-17T09:31:09.718Z,41.36
2019-03-17T09:33:41.543Z,40.45
2019-03-17T09:36:13.366Z,40.67
2019-03-17T09:38:47.510Z,41.17
2019-03-17T09:41:18.647Z,41.03
2019-03-17T09:43:50.547Z,41.12
2019-03-17T09:46:22.416Z,41.50
2019-03-17T09:48:54.601Z,39.91
2019-03-17T09:51:26.348Z,39.58
2019-03-17T09:53:58.361Z,40.23
2019-03-17T09:56:30.267Z,38.80
2019-03-17T09:59:02.002Z,39.39
2019-03-17T10:01:33.883Z,39.11
2019-03-17T10:04:05.789Z,39.80
2019-03-17T10:06:37.678Z,40.00
2019-03-17T10:09:09.881Z,39.10
2019-03-17T10:11:41.772Z,39.54
2019-03-17T10:14:13.692Z,41.50
2019-03-17T10:16:45.514Z,40.28
2019-03-17T10:19:17.272Z,42.12
2019-03-17T10:21:49.030Z,43.43
2019-03-17T10:24:21.234Z,44.10
2019-03-17T10:26:52.969Z,44.35
2019-03-17T10:29:25.158Z,44.89
2019-03-17T10:31:57.287Z,46.03
2019-03-17T10:34:29.411Z,44.87
2019-03-17T10:37:01.229Z,45.65
2019-03-17T10:39:33.056Z,46.42
2019-03-17T10:42:04.945Z,45.43
2019-03-17T10:44:37.051Z,45.17
2019-03-17T10:47:08.785Z,46.28
2019-03-17T10:49:40.586Z,45.09
2019-03-17T10:52:12.482Z,46.00
2019-03-17T10:54:44.238Z,44.97
2019-03-17T10:57:15.982Z,45.81
2019-03-17T10:59:48.124Z,45.58
2019-03-17T11:02:19.951Z,45.80
2019-03-17T11:04:51.776Z,46.42
2019-03-17T11:07:23.680Z,48.97
2019-03-17T11:09:55.490Z,46.97
2019-03-17T11:12:27.434Z,46.34
2019-03-17T11:14:59.185Z,47.52
2019-03-17T11:17:31.209Z,47.22
2019-03-17T11:20:03.054Z,45.43
2019-03-17T11:22:35.441Z,45.21
2019-03-17T11:25:08.034Z,45.01
2019-03-17T11:27:39.832Z,45.11
2019-03-17T11:30:13.278Z,42.54
2019-03-17T11:32:45.249Z,41.42
2019-03-17T11:35:17.142Z,41.28
2019-03-17T11:37:49.097Z,40.81
2019-03-17T11:40:22.072Z,41.02
2019-03-17T11:42:53.956Z,41.45
2019-03-17T11:45:25.813Z,40.43
2019-03-17T11:47:57.716Z,39.97
2019-03-17T11:50:29.682Z,40.56
2019-03-17T11:53:01.580Z,40.33
2019-03-17T11:55:33.844Z,40.49
2019-03-17T11:58:05.695Z,40.28
2019-03-17T12:00:37.448Z,41.25
2019-03-17T12:03:09.600Z,40.89
2019-03-17T12:05:41.506Z,41.81
2019-03-17T12:08:13.478Z,46.37
2019-03-17T12:10:45.413Z,48.36
2019-03-17T12:13:17.613Z,49.48
2019-03-17T12:15:49.433Z,50.30
2019-03-17T12:18:21.628Z,50.54
2019-03-17T12:20:53.452Z,50.32
2019-03-17T12:23:25.283Z,48.74
2019-03-17T12:25:57.426Z,49.19
2019-03-17T12:28:29.397Z,50.41
2019-03-17T12:31:02.093Z,50.03
2019-03-17T12:33:34.514Z,48.00
2019-03-17T12:36:07.384Z,48.42
2019-03-17T12:38:39.134Z,49.18
2019-03-17T12:41:11.850Z,49.47
2019-03-17T12:43:43.674Z,50.37
2019-03-17T12:46:15.426Z,50.19
2019-03-17T12:48:47.247Z,50.53
2019-03-17T12:51:19.317Z,50.08
2019-03-17T12:53:51.366Z,50.05
2019-03-17T12:56:23.200Z,50.37
2019-03-17T12:58:55.361Z,49.51
2019-03-17T13:01:27.119Z,50.08
2019-03-17T13:03:58.897Z,50.75
2019-03-17T13:06:30.664Z,50.94
2019-03-17T13:09:02.422Z,51.02
2019-03-17T13:11:34.198Z,51.43
2019-03-17T13:14:07.003Z,50.97
2019-03-17T13:16:39.114Z,51.46
2019-03-17T13:19:11.448Z,52.44
2019-03-17T13:21:43.220Z,53.35
2019-03-17T13:24:15.068Z,53.91
2019-03-17T13:26:47.234Z,54.84
2019-03-17T13:29:18.982Z,55.83
2019-03-17T13:31:50.891Z,56.19
2019-03-17T13:34:22.636Z,56.55
2019-03-17T13:36:54.408Z,57.30
2019-03-17T13:39:26.535Z,57.81
2019-03-17T13:41:58.595Z,58.06
2019-03-17T13:44:30.511Z,58.74
2019-03-17T13:47:02.359Z,59.09
2019-03-17T13:49:34.110Z,59.52
2019-03-17T13:52:06.360Z,59.89
2019-03-17T13:54:38.585Z,60.97
2019-03-17T13:57:11.270Z,61.61
2019-03-17T13:59:43.142Z,64.40
2019-03-17T14:02:14.975Z,65.59
2019-03-17T14:04:46.928Z,66.77
2019-03-17T14:07:18.784Z,67.26
2019-03-17T14:09:50.605Z,68.59
2019-03-17T14:12:22.436Z,69.23
2019-03-17T14:14:54.210Z,69.86
2019-03-17T14:17:25.978Z,71.31
2019-03-17T14:19:57.980Z,72.78
2019-03-17T14:22:29.809Z,73.45
2019-03-17T14:25:01.648Z,73.83
2019-03-17T14:27:33.891Z,74.14
2019-03-17T14:30:06.221Z,74.21
2019-03-17T14:32:38.063Z,74.23
2019-03-17T14:35:10.139Z,76.26
2019-03-17T14:37:41.975Z,78.84
2019-03-17T14:40:14.562Z,80.79
2019-03-17T14:42:47.926Z,80.26
2019-03-17T14:45:19.824Z,80.83
2019-03-17T14:47:51.800Z,81.77
2019-03-17T14:50:23.769Z,81.82
2019-03-17T14:52:55.620Z,83.29
2019-03-17T14:55:27.385Z,83.01
2019-03-17T14:58:00.185Z,82.83
2019-03-17T15:00:32.282Z,84.08
2019-03-17T15:03:04.158Z,83.87
2019-03-17T15:05:35.932Z,84.05
2019-03-17T15:08:07.766Z,83.35
2019-03-17T15:10:39.618Z,83.35
2019-03-17T15:13:11.462Z,84.23
2019-03-17T15:15:43.690Z,83.30
2019-03-17T15:18:17.072Z,82.82
2019-03-17T15:20:48.888Z,82.13
2019-03-17T15:23:20.748Z,82.97
2019-03-17T15:25:52.554Z,84.70
2019-03-17T15:28:24.321Z,84.16
2019-03-17T15:31:10.195Z,83.70
2019-03-17T15:33:30.012Z,84.20
2019-03-17T15:36:01.765Z,84.62
2019-03-17T15:38:33.513Z,85.30
2019-03-17T15:41:17.645Z,84.40
2019-03-17T15:43:39.391Z,85.25
2019-03-17T15:46:12.071Z,86.07
2019-03-17T15:48:43.964Z,84.95
2019-03-17T15:51:20.574Z,85.12
2019-03-17T15:53:49.328Z,83.72
2019-03-17T15:56:21.558Z,83.84
2019-03-17T15:58:54.679Z,84.11
2019-03-17T16:01:26.787Z,83.49
2019-03-17T16:03:58.652Z,84.79
2019-03-17T16:06:30.390Z,83.88
2019-03-17T16:09:02.904Z,84.65
2019-03-17T16:11:35.262Z,85.56
2019-03-17T16:14:07.187Z,85.92
2019-03-17T16:16:39.007Z,85.13
2019-03-17T16:19:11.910Z,85.08
2019-03-17T16:21:43.751Z,86.02
2019-03-17T16:24:15.644Z,84.98
2019-03-17T16:26:47.725Z,85.18
2019-03-17T16:29:19.666Z,86.67
2019-03-17T16:31:51.567Z,87.19
2019-03-17T16:34:23.309Z,85.59
2019-03-17T16:36:55.352Z,85.15
2019-03-17T16:39:27.168Z,86.10
2019-03-17T16:41:59.215Z,86.19
2019-03-17T16:44:31.046Z,86.55
2019-03-17T16:47:03.517Z,87.49
2019-03-17T16:49:35.275Z,87.18
2019-03-17T16:52:07.194Z,87.58
2019-03-17T16:54:58.399Z,89.58
2019-03-17T16:57:30.191Z,87.95
2019-03-17T17:00:02.072Z,86.95
2019-03-17T17:02:35.064Z,89.53
2019-03-17T17:05:07.768Z,89.02
2019-03-17T17:07:39.753Z,88.53
2019-03-17T17:10:14.765Z,88.30
2019-03-17T17:12:47.390Z,87.80
2019-03-17T17:15:22.165Z,87.86
2019-03-17T17:17:54.702Z,87.39
2019-03-17T17:20:27.879Z,88.26
2019-03-17T17:22:59.856Z,88.03
2019-03-17T17:25:32.021Z,88.74
2019-03-17T17:28:04.011Z,86.87
2019-03-17T17:30:36.751Z,87.05
2019-03-17T17:33:08.597Z,88.03
2019-03-17T17:35:40.430Z,86.94
2019-03-17T17:38:12.320Z,87.19
2019-03-17T17:40:44.067Z,87.24
2019-03-17T17:43:15.826Z,87.78
2019-03-17T17:45:47.728Z,88.45
2019-03-17T17:48:19.623Z,87.81
2019-03-17T17:50:51.637Z,89.23
2019-03-17T17:53:23.721Z,88.03
2019-03-17T17:55:55.707Z,88.31
2019-03-17T17:58:27.803Z,88.70
2019-03-17T18:00:59.638Z,88.24
2019-03-17T18:03:31.451Z,88.05
2019-03-17T18:06:03.393Z,88.01
2019-03-17T18:08:35.366Z,87.79
2019-03-17T18:11:07.712Z,87.98
2019-03-17T18:13:39.501Z,88.32
2019-03-17T18:16:11.832Z,89.10
2019-03-17T18:18:43.888Z,89.22
2019-03-17T18:21:15.664Z,87.98
2019-03-17T18:23:47.655Z,88.55
2019-03-17T18:26:20.157Z,88.89
2019-03-17T18:28:52.043Z,89.56
2019-03-17T18:31:26.174Z,88.59
2019-03-17T18:33:58.120Z,88.19
2019-03-17T18:36:30.325Z,88.29
2019-03-17T18:39:02.681Z,88.65
2019-03-17T18:41:35.099Z,89.59
2019-03-17T18:44:07.081Z,88.45
2019-03-17T18:46:39.027Z,87.91
2019-03-17T18:49:12.666Z,87.56
2019-03-17T18:51:44.550Z,87.76
2019-03-17T18:54:16.641Z,89.06
2019-03-17T18:56:48.481Z,88.38
2019-03-17T18:59:20.494Z,88.45
2019-03-17T19:01:52.322Z,87.59
2019-03-17T19:04:24.689Z,89.16
2019-03-17T19:06:57.404Z,89.17
2019-03-17T19:09:29.215Z,89.53
2019-03-17T19:12:01.301Z,89.27
2019-03-17T19:14:33.195Z,89.07
2019-03-17T19:17:05.089Z,89.50
2019-03-17T19:19:37.112Z,90.34
2019-03-17T19:22:08.858Z,90.31
2019-03-17T19:24:40.667Z,89.80
2019-03-17T19:27:12.607Z,90.35
2019-03-17T19:29:44.415Z,88.17
2019-03-17T19:32:16.244Z,88.06
2019-03-17T19:34:48.339Z,88.02
2019-03-17T19:37:20.167Z,89.30
2019-03-17T19:39:51.909Z,88.67
2019-03-17T19:42:23.665Z,89.25
2019-03-17T19:44:55.433Z,88.62
2019-03-17T19:47:27.189Z,90.06
2019-03-17T19:49:59.087Z,88.67
2019-03-17T19:52:30.998Z,88.17
2019-03-17T19:55:02.897Z,88.37
2019-03-17T19:57:34.710Z,88.62
2019-03-17T20:00:07.781Z,88.36
2019-03-17T20:02:39.614Z,89.09
2019-03-17T20:05:11.571Z,89.20
2019-03-17T20:07:43.499Z,88.48
2019-03-17T20:10:19.229Z,87.57
2019-03-17T20:12:51.320Z,87.99
2019-03-17T20:15:23.156Z,87.40
2019-03-17T20:17:55.292Z,88.69
2019-03-17T20:20:27.408Z,88.58
2019-03-17T20:22:59.244Z,87.63
2019-03-17T20:25:31.059Z,87.04
2019-03-17T20:28:02.855Z,86.54
2019-03-17T20:30:34.661Z,87.50
2019-03-17T20:33:06.551Z,88.13
2019-03-17T20:35:38.660Z,86.60
2019-03-17T20:38:11.315Z,87.90
2019-03-17T20:40:43.223Z,87.48
2019-03-17T20:43:28.962Z,86.89
2019-03-17T20:45:48.580Z,86.03
2019-03-17T20:48:20.522Z,86.13
2019-03-17T20:50:52.919Z,86.46
2019-03-17T20:53:24.742Z,86.85
2019-03-17T20:55:56.827Z,84.88
2019-03-17T20:58:28.848Z,84.77
2019-03-17T21:01:00.682Z,84.09
2019-03-17T21:03:32.514Z,83.69
2019-03-17T21:06:04.426Z,83.08
2019-03-17T21:08:36.411Z,83.19
2019-03-17T21:11:08.303Z,83.27
2019-03-17T21:13:46.748Z,84.56
2019-03-17T21:16:13.758Z,83.91
2019-03-17T21:18:45.521Z,83.94
2019-03-17T21:21:17.668Z,83.43
2019-03-17T21:23:49.423Z,83.63
2019-03-17T21:26:21.158Z,83.84
2019-03-17T21:28:53.676Z,84.57
2019-03-17T21:31:25.424Z,83.71
2019-03-17T21:33:57.173Z,83.34
2019-03-17T21:36:28.999Z,83.77
2019-03-17T21:39:00.842Z,83.74
2019-03-17T21:41:33.506Z,83.91
2019-03-17T21:44:05.570Z,84.04
2019-03-17T21:46:37.893Z,83.60
2019-03-17T21:49:09.779Z,83.55
2019-03-17T21:51:41.519Z,83.66
2019-03-17T21:54:13.348Z,84.26
2019-03-17T21:56:45.085Z,84.02
2019-03-17T21:59:17.960Z,83.92
2019-03-17T22:01:49.793Z,84.38
2019-03-17T22:04:21.545Z,84.31
2019-03-17T22:06:53.698Z,84.77
2019-03-17T22:09:25.501Z,84.16
2019-03-17T22:11:57.421Z,83.85
2019-03-17T22:14:29.166Z,83.77
2019-03-17T22:17:00.976Z,83.31
2019-03-17T22:19:32.725Z,84.67
2019-03-17T22:22:04.972Z,83.42
2019-03-17T22:24:36.802Z,82.76
2019-03-17T22:27:09.023Z,82.75
2019-03-17T22:29:40.872Z,82.92
2019-03-17T22:32:12.808Z,82.86
2019-03-17T22:34:44.587Z,82.12
2019-03-17T22:37:16.411Z,81.87
2019-03-17T22:39:48.175Z,82.06
2019-03-17T22:42:20.004Z,81.44
2019-03-17T22:44:51.741Z,81.79
2019-03-17T22:47:23.825Z,82.55
2019-03-17T22:49:55.684Z,81.57
2019-03-17T22:52:27.444Z,81.72
2019-03-17T22:54:59.186Z,82.73
2019-03-17T22:57:31.033Z,81.90
2019-03-17T23:00:02.935Z,82.04
2019-03-17T23:02:36.421Z,81.93
2019-03-17T23:05:08.452Z,81.68
2019-03-17T23:07:40.266Z,82.18
2019-03-17T23:10:13.547Z,81.56
2019-03-17T23:12:46.461Z,81.52
2019-03-17T23:15:18.333Z,81.93
2019-03-17T23:17:50.228Z,82.08
2019-03-17T23:20:21.989Z,82.34
2019-03-17T23:22:54.243Z,81.83
2019-03-17T23:25:26.001Z,82.22
2019-03-17T23:27:57.824Z,82.52
2019-03-17T23:30:29.795Z,82.06
2019-03-17T23:33:01.679Z,82.06
2019-03-17T23:35:34.133Z,82.15
2019-03-17T23:38:06.096Z,81.68
2019-03-17T23:40:37.937Z,81.56
2019-03-17T23:43:11.292Z,82.34
2019-03-17T23:45:43.045Z,81.86
2019-03-17T23:48:15.199Z,82.58
2019-03-17T23:50:47.136Z,81.99
2019-03-17T23:53:18.965Z,82.30
2019-03-17T23:55:50.878Z,82.31
2019-03-17T23:58:22.617Z,81.53
